createdAt,value
2024-03-02T00:03:10.622Z,8.50
2024-03-02T00:08:18.606Z,8.75
2024-03-02T00:13:25.384Z,9.55
2024-03-02T00:18:32.454Z,9.27
2024-03-02T00:23:37.513Z,9.23
2024-03-02T00:28:44.804Z,9.18
2024-03-02T00:33:49.722Z,9.48
2024-03-02T00:38:55.901Z,9.35
2024-03-02T00:44:03.297Z,9.48
2024-03-02T00:49:07.314Z,9.20
2024-03-02T00:54:12.934Z,9.32
2024-03-02T00:59:15.925Z,9.00
2024-03-02T01:04:19.062Z,9.25
2024-03-02T01:09:23.627Z,9.65
2024-03-02T01:14:26.723Z,8.93
2024-03-02T01:19:29.806Z,8.80
2024-03-02T01:24:34.337Z,8.65
2024-03-02T01:29:37.339Z,9.32
2024-03-02T01:34:40.317Z,10.15
2024-03-02T01:39:44.850Z,10.93
2024-03-02T01:44:48.158Z,9.65
2024-03-02T01:49:51.841Z,10.80
2024-03-02T01:54:56.202Z,10.30
2024-03-02T01:59:59.280Z,10.73
2024-03-02T02:05:02.289Z,10.27
2024-03-02T02:10:07.745Z,11.98
2024-03-02T02:15:30.052Z,12.18
2024-03-02T02:20:33.324Z,12.65
2024-03-02T02:25:37.758Z,13.23
2024-03-02T02:30:40.783Z,13.13
2024-03-02T02:35:43.851Z,13.65
2024-03-02T02:40:48.292Z,13.60
2024-03-02T02:45:51.359Z,13.80
2024-03-02T02:50:54.416Z,13.63
2024-03-02T02:55:58.721Z,12.85
2024-03-02T03:01:01.728Z,12.75
2024-03-02T03:06:05.261Z,13.38
2024-03-02T03:17:57.058Z,13.15
2024-03-02T03:23:00.057Z,14.40
2024-03-02T03:28:04.502Z,14.10
2024-03-02T03:33:08.935Z,14.77
2024-03-02T03:38:11.850Z,14.95
2024-03-02T03:43:14.688Z,14.45
2024-03-02T03:48:19.757Z,13.68
2024-03-02T03:53:23.417Z,13.75
2024-03-02T03:58:26.251Z,13.35
2024-03-02T04:03:31.432Z,13.10
2024-03-02T04:08:34.322Z,14.50
2024-03-02T04:13:37.310Z,14.13
2024-03-02T04:18:41.725Z,14.15
2024-03-02T04:23:44.648Z,13.43
2024-03-02T04:28:47.665Z,14.35
2024-03-02T04:33:52.049Z,14.65
2024-03-02T04:38:55.028Z,15.23
2024-03-02T04:43:57.941Z,14.82
2024-03-02T04:49:02.292Z,15.73
2024-03-02T04:54:05.311Z,15.43
2024-03-02T04:59:08.814Z,16.75
2024-03-02T05:04:13.658Z,16.15
2024-03-02T05:09:16.579Z,17.38
2024-03-02T05:14:19.601Z,16.80
2024-03-02T05:19:23.879Z,16.75
2024-03-02T05:24:28.393Z,16.77
2024-03-02T05:29:31.247Z,15.07
2024-03-02T05:34:36.552Z,15.98
2024-03-02T05:39:39.620Z,16.17
2024-03-02T05:44:42.521Z,14.90
2024-03-02T05:49:46.774Z,14.75
2024-03-02T05:54:50.078Z,15.60
2024-03-02T05:59:53.157Z,15.10
2024-03-02T06:04:58.429Z,15.45
2024-03-02T06:10:01.538Z,16.05
2024-03-02T06:15:05.086Z,17.10
2024-03-02T06:20:10.814Z,17.17
2024-03-02T06:25:14.331Z,16.42
2024-03-02T06:30:17.731Z,17.42
2024-03-02T06:35:22.041Z,17.15
2024-03-02T06:40:24.874Z,17.17
2024-03-02T06:45:27.941Z,18.45
2024-03-02T06:50:32.146Z,17.23
2024-03-02T06:55:35.025Z,19.33
2024-03-02T07:00:37.881Z,18.13
2024-03-02T07:05:43.141Z,19.92
2024-03-02T07:10:45.991Z,20.67
2024-03-02T07:16:12.343Z,20.95
2024-03-02T07:21:16.548Z,19.65
2024-03-02T07:31:26.228Z,20.95
2024-03-02T07:36:30.515Z,19.45
2024-03-02T07:41:33.873Z,16.35
2024-03-02T07:46:36.908Z,16.83
2024-03-02T07:51:41.201Z,15.88
2024-03-02T07:56:44.183Z,18.15
2024-03-02T08:07:25.629Z,17.85
2024-03-02T08:12:28.742Z,17.55
2024-03-02T08:17:34.214Z,18.05
2024-03-02T08:22:38.862Z,16.77
2024-03-02T08:27:42.288Z,16.00
2024-03-02T08:32:46.207Z,12.55
2024-03-02T08:37:50.853Z,11.90
2024-03-02T08:42:54.630Z,11.30
2024-03-02T08:47:57.696Z,11.45
2024-03-02T08:53:02.128Z,11.75
2024-03-02T08:58:05.604Z,11.63
2024-03-02T09:03:08.890Z,11.75
2024-03-02T09:08:13.110Z,10.05
2024-03-02T09:13:16.111Z,9.60
2024-03-02T09:18:19.145Z,7.60
2024-03-02T09:23:23.610Z,9.90
2024-03-02T09:28:26.630Z,8.45
2024-03-02T09:33:29.810Z,6.85
2024-03-02T09:38:35.731Z,6.15
2024-03-02T09:43:38.903Z,6.25
2024-03-02T09:48:42.026Z,6.32
2024-03-02T09:53:46.534Z,6.22
2024-03-02T09:58:49.710Z,6.40
2024-03-02T10:03:53.364Z,5.85
2024-03-02T10:08:58.043Z,6.68
2024-03-02T10:14:09.509Z,6.55
2024-03-02T10:19:18.838Z,6.50
2024-03-02T10:24:24.477Z,7.00
2024-03-02T10:29:29.564Z,7.20
2024-03-02T10:34:33.390Z,7.00
2024-03-02T10:39:38.592Z,6.43
2024-03-02T10:44:41.880Z,5.80
2024-03-02T10:49:45.613Z,6.20
2024-03-02T10:54:50.058Z,5.88
2024-03-02T10:59:58.011Z,6.45
2024-03-02T11:05:10.053Z,5.03
2024-03-02T11:10:15.375Z,6.65
2024-03-02T11:15:21.519Z,5.63
2024-03-02T11:20:25.811Z,5.10
2024-03-02T11:25:30.475Z,5.75
2024-03-02T11:30:52.908Z,5.97
2024-03-02T11:35:57.804Z,5.63
2024-03-02T11:41:04.838Z,6.00
2024-03-02T11:46:09.347Z,5.45
2024-03-02T11:51:13.948Z,5.57
2024-03-02T11:56:23.037Z,5.47
2024-03-02T12:01:26.233Z,6.15
2024-03-02T12:06:30.452Z,5.72
2024-03-02T12:11:34.942Z,5.40
2024-03-02T12:16:39.801Z,4.88
2024-03-02T12:21:43.011Z,5.45
2024-03-02T12:26:48.187Z,4.82
2024-03-02T12:31:51.476Z,5.43
2024-03-02T12:36:54.654Z,5.20
2024-03-02T12:41:59.034Z,4.22
2024-03-02T12:47:02.480Z,5.20
2024-03-02T12:52:06.396Z,5.45
2024-03-02T12:57:10.974Z,5.00
2024-03-02T13:02:19.768Z,4.10
2024-03-02T13:07:23.921Z,4.10
2024-03-02T13:12:28.357Z,3.80
2024-03-02T13:17:36.913Z,4.20
2024-03-02T13:22:41.331Z,3.55
2024-03-02T13:27:45.689Z,3.00
2024-03-02T13:32:48.651Z,3.60
2024-03-02T13:37:52.029Z,2.88
2024-03-02T13:42:56.731Z,2.70
2024-03-02T13:47:59.783Z,3.00
2024-03-02T13:53:04.180Z,2.92
2024-03-02T13:58:09.042Z,2.75
2024-03-02T14:03:12.046Z,2.85
2024-03-02T14:08:15.256Z,1.77
2024-03-02T14:13:19.596Z,2.65
2024-03-02T14:18:23.400Z,2.22
2024-03-02T14:23:29.284Z,1.67
2024-03-02T14:28:47.991Z,2.15
2024-03-02T14:33:54.217Z,1.92
2024-03-02T14:38:57.489Z,1.90
2024-03-02T14:44:01.761Z,1.98
2024-03-02T14:49:05.000Z,1.73
2024-03-02T14:54:08.488Z,1.70
2024-03-02T14:59:12.808Z,1.50
2024-03-02T15:04:18.496Z,2.10
2024-03-02T15:09:23.139Z,2.80
2024-03-02T15:14:27.465Z,2.65
2024-03-02T15:19:30.497Z,2.85
2024-03-02T15:24:33.542Z,3.30
2024-03-02T15:29:37.955Z,3.10
2024-03-02T15:34:41.052Z,2.85
2024-03-02T15:39:45.143Z,2.63
2024-03-02T15:44:49.486Z,2.92
2024-03-02T15:49:52.423Z,3.08
2024-03-02T15:54:55.375Z,2.67
2024-03-02T15:59:59.777Z,2.53
2024-03-02T16:05:02.724Z,5.60
2024-03-02T16:10:08.833Z,3.10
2024-03-02T16:15:13.367Z,4.50
2024-03-02T16:20:16.462Z,3.38
2024-03-02T16:25:19.630Z,2.88
2024-03-02T16:30:25.667Z,2.90
2024-03-02T16:35:28.827Z,3.35
2024-03-02T16:40:32.829Z,3.25
2024-03-02T16:45:37.243Z,2.72
2024-03-02T16:50:40.243Z,4.20
2024-03-02T16:55:43.450Z,3.47
2024-03-02T17:00:48.301Z,2.80
2024-03-02T17:05:51.299Z,3.28
2024-03-02T17:10:54.402Z,4.00
2024-03-02T17:15:58.840Z,3.60
2024-03-02T17:21:01.898Z,4.32
2024-03-02T17:26:05.106Z,3.28
2024-03-02T17:31:10.043Z,3.70
2024-03-02T17:36:14.250Z,3.83
2024-03-02T17:41:17.330Z,2.80
2024-03-02T17:46:21.982Z,3.08
2024-03-02T17:51:25.553Z,4.20
2024-03-02T17:56:28.628Z,4.05
2024-03-02T18:01:32.956Z,3.88
2024-03-02T18:06:36.302Z,3.35
2024-03-02T18:11:40.488Z,4.18
2024-03-02T18:16:45.015Z,4.25
2024-03-02T18:21:50.231Z,4.93
2024-03-02T18:26:53.356Z,5.28
2024-03-02T18:31:58.859Z,5.70
2024-03-02T18:37:02.006Z,7.55
2024-03-02T18:42:05.733Z,6.60
2024-03-02T18:47:11.991Z,6.93
2024-03-02T18:52:18.812Z,5.68
2024-03-02T18:57:22.414Z,5.43
2024-03-02T19:02:27.298Z,5.05
2024-03-02T19:07:31.094Z,5.70
2024-03-02T19:12:34.966Z,6.25
2024-03-02T19:17:39.512Z,5.85
2024-03-02T19:22:43.205Z,5.22
2024-03-02T19:27:46.525Z,5.53
2024-03-02T19:32:50.996Z,5.72
2024-03-02T19:37:56.403Z,5.75
2024-03-02T19:42:59.428Z,5.80
2024-03-02T19:48:04.517Z,5.93
2024-03-02T19:53:08.170Z,6.35
2024-03-02T19:58:11.251Z,5.70
2024-03-02T20:03:16.174Z,6.32
2024-03-02T20:08:19.143Z,6.97
2024-03-02T20:18:53.529Z,8.55
2024-03-02T20:23:56.734Z,9.13
2024-03-02T20:28:59.593Z,8.75
2024-03-02T20:34:03.977Z,9.40
2024-03-02T20:39:07.252Z,8.70
2024-03-02T20:44:10.230Z,9.15
2024-03-02T20:49:14.683Z,8.88
2024-03-02T20:54:17.714Z,9.30
2024-03-02T20:59:20.685Z,8.40
2024-03-02T21:04:25.215Z,9.75
2024-03-02T21:09:28.107Z,9.45
2024-03-02T21:14:31.197Z,9.77
2024-03-02T21:19:36.623Z,9.48
2024-03-02T21:24:41.657Z,9.43
2024-03-02T21:29:44.751Z,10.70
2024-03-02T21:34:49.411Z,9.98
2024-03-02T21:39:52.334Z,9.45
2024-03-02T21:44:55.669Z,9.80
2024-03-02T21:50:00.201Z,8.75
2024-03-02T21:55:03.366Z,9.40
2024-03-02T22:00:07.754Z,9.60
2024-03-02T22:05:18.066Z,9.80
2024-03-02T22:10:21.023Z,9.43
2024-03-02T22:15:24.020Z,9.30
2024-03-02T22:20:28.270Z,9.02
2024-03-02T22:25:31.163Z,9.35
2024-03-02T22:30:34.142Z,8.88
2024-03-02T22:35:38.360Z,9.20
2024-03-02T22:40:41.226Z,9.13
2024-03-02T22:45:44.163Z,9.02
2024-03-02T22:50:48.747Z,9.50
2024-03-02T22:55:51.779Z,9.63
2024-03-02T23:00:59.041Z,8.60
2024-03-02T23:06:04.461Z,9.70
2024-03-02T23:11:07.696Z,9.45
2024-03-02T23:16:10.825Z,9.27
2024-03-02T23:21:15.217Z,10.48
2024-03-02T23:26:18.181Z,8.82
2024-03-02T23:31:21.268Z,10.15
2024-03-02T23:36:25.560Z,9.90
2024-03-02T23:41:28.517Z,9.23
2024-03-02T23:46:31.472Z,10.18
2024-03-02T23:51:35.758Z,9.90
2024-03-02T23:56:38.750Z,10.55
